Talladega, Alabama
Current Conditions -  °F | °C
As of 6:35 AM on Monday 22 Dec 2014 (Local Time) from KASN Reporting Station
Overcast Overcast  
Wind Chill: 51°   Ceiling: 1200
Heat Index: 51°   Visibility: 10mi
Dew Point: 47°   Wind: 6mph
Humidity: 87%   Direction: 70°ENE
Pressure: 30"   Gusts: NA
Location:  33.43°N, 86.1°W
Report Text: KASN 221235Z AUTO 07005KT 10SM OVC012 10/08 A3000 RMK AO2 T01030083
Loading
Personal Weather Stations






























Interactive Weather Map New forecast layout! Learn more

10-Day Weather Forecast

Advertisements
Track Severe Weather on mobile